createdAt,value
2023-05-12T00:00:26.327Z,0.68
2023-05-12T00:02:53.649Z,0.60
2023-05-12T00:05:21.028Z,0.55
2023-05-12T00:07:49.809Z,0.57
2023-05-12T00:10:17.119Z,0.80
2023-05-12T00:12:44.599Z,0.75
2023-05-12T00:15:11.949Z,0.80
2023-05-12T00:17:39.280Z,0.70
2023-05-12T00:20:07.132Z,1.40
2023-05-12T00:22:34.326Z,0.60
2023-05-12T00:25:01.532Z,0.85
2023-05-12T00:27:32.010Z,1.02
2023-05-12T00:29:59.570Z,0.68
2023-05-12T00:32:27.489Z,0.60
2023-05-12T00:34:54.764Z,1.15
2023-05-12T00:37:21.996Z,0.70
2023-05-12T00:39:49.277Z,0.70
2023-05-12T00:42:16.576Z,0.95
2023-05-12T00:44:43.833Z,0.70
2023-05-12T00:47:11.123Z,0.70
2023-05-12T00:49:42.616Z,0.98
2023-05-12T00:52:10.032Z,0.80
2023-05-12T00:54:37.574Z,0.43
2023-05-12T00:57:04.986Z,0.50
2023-05-12T00:59:32.245Z,0.40
2023-05-12T01:01:59.509Z,0.40
2023-05-12T01:04:26.919Z,0.47
2023-05-12T01:06:54.169Z,0.50
2023-05-12T01:09:21.528Z,0.60
2023-05-12T01:11:48.754Z,0.88
2023-05-12T01:14:15.948Z,0.40
2023-05-12T01:16:53.392Z,0.45
2023-05-12T01:19:33.897Z,0.90
2023-05-12T01:22:01.653Z,0.88
2023-05-12T01:24:30.434Z,0.68
2023-05-12T01:26:57.720Z,0.68
2023-05-12T01:29:25.230Z,0.93
2023-05-12T01:31:52.666Z,1.15
2023-05-12T01:34:19.858Z,0.80
2023-05-12T01:36:47.141Z,0.82
2023-05-12T01:39:14.321Z,0.82
2023-05-12T01:41:41.527Z,1.08
2023-05-12T01:44:08.922Z,0.80
2023-05-12T01:46:36.645Z,0.80
2023-05-12T01:49:03.992Z,0.82
2023-05-12T01:51:31.557Z,0.60
2023-05-12T01:53:58.764Z,0.50
2023-05-12T01:56:26.544Z,0.40
2023-05-12T01:58:53.858Z,0.60
2023-05-12T02:01:21.184Z,1.00
2023-05-12T02:03:48.481Z,0.88
2023-05-12T02:06:15.796Z,0.65
2023-05-12T02:08:43.061Z,0.60
2023-05-12T02:11:11.030Z,0.50
2023-05-12T02:13:38.282Z,0.40
2023-05-12T02:16:05.735Z,0.47
2023-05-12T02:18:32.977Z,0.50
2023-05-12T02:21:00.581Z,0.40
2023-05-12T02:23:27.789Z,0.40
2023-05-12T02:25:55.021Z,0.50
2023-05-12T02:28:22.256Z,0.47
2023-05-12T02:30:50.781Z,0.50
2023-05-12T02:33:18.722Z,0.40
2023-05-12T02:35:46.269Z,0.40
2023-05-12T02:38:13.590Z,0.50
2023-05-12T02:40:40.782Z,0.40
2023-05-12T02:43:08.008Z,0.50
2023-05-12T02:45:35.579Z,0.50
2023-05-12T02:48:02.994Z,0.60
2023-05-12T02:50:30.267Z,0.50
2023-05-12T02:52:57.486Z,0.40
2023-05-12T02:55:25.005Z,0.38
2023-05-12T02:57:52.352Z,0.40
2023-05-12T03:00:20.208Z,0.40
2023-05-12T03:02:47.621Z,0.50
2023-05-12T03:05:15.281Z,0.40
2023-05-12T03:07:42.556Z,0.50
2023-05-12T03:10:13.043Z,0.40
2023-05-12T03:12:40.735Z,0.30
2023-05-12T03:15:09.000Z,0.40
2023-05-12T03:17:36.723Z,0.40
2023-05-12T03:20:04.627Z,0.30
2023-05-12T03:22:31.851Z,0.40
2023-05-12T03:24:59.048Z,0.40
2023-05-12T03:27:26.314Z,0.40
2023-05-12T03:29:53.544Z,0.25
2023-05-12T03:32:20.822Z,0.60
2023-05-12T03:34:48.108Z,0.50
2023-05-12T03:37:16.185Z,0.35
2023-05-12T03:39:43.457Z,0.50
2023-05-12T03:42:10.673Z,0.50
2023-05-12T03:44:37.965Z,0.50
2023-05-12T03:47:05.355Z,0.40
2023-05-12T03:49:32.697Z,0.45
2023-05-12T03:51:59.884Z,0.40
2023-05-12T03:54:27.305Z,0.40
2023-05-12T03:56:54.569Z,0.30
2023-05-12T03:59:21.921Z,0.60
2023-05-12T04:01:49.157Z,0.80
2023-05-12T04:04:16.729Z,0.43
2023-05-12T04:06:43.951Z,0.50
2023-05-12T04:09:11.669Z,0.52
2023-05-12T04:11:38.962Z,0.60
2023-05-12T04:14:06.161Z,0.60
2023-05-12T04:16:33.446Z,0.70
2023-05-12T04:19:00.846Z,0.55
2023-05-12T04:21:28.155Z,0.43
2023-05-12T04:23:55.412Z,1.17
2023-05-12T04:26:22.696Z,0.60
2023-05-12T04:28:49.885Z,1.05
2023-05-12T04:31:17.109Z,0.82
2023-05-12T04:33:45.792Z,1.10
2023-05-12T04:36:14.179Z,1.30
2023-05-12T04:38:41.960Z,0.75
2023-05-12T04:41:09.339Z,0.70
2023-05-12T04:46:06.949Z,1.42
2023-05-12T04:48:34.199Z,1.38
2023-05-12T04:51:01.533Z,1.10
2023-05-12T04:53:28.981Z,1.77
2023-05-12T04:55:56.734Z,1.20
2023-05-12T04:58:24.074Z,1.42
2023-05-12T05:00:51.452Z,1.10
2023-05-12T05:03:18.805Z,1.55
2023-05-12T05:05:46.137Z,1.65
2023-05-12T05:08:13.337Z,1.58
2023-05-12T05:10:40.650Z,1.23
2023-05-12T05:13:07.983Z,1.60
2023-05-12T05:15:35.204Z,1.92
2023-05-12T05:18:02.549Z,2.20
2023-05-12T05:20:29.809Z,1.48
2023-05-12T05:22:57.130Z,1.80
2023-05-12T05:25:24.458Z,1.58
2023-05-12T05:27:51.630Z,0.80
2023-05-12T05:30:19.241Z,1.05
2023-05-12T05:32:46.531Z,1.00
2023-05-12T05:35:13.915Z,1.70
2023-05-12T05:37:41.577Z,1.20
2023-05-12T05:40:09.378Z,1.42
2023-05-12T05:42:36.562Z,1.13
2023-05-12T05:45:03.860Z,1.45
2023-05-12T05:47:32.240Z,1.60
2023-05-12T05:49:59.562Z,1.48
2023-05-12T05:52:26.778Z,1.65
2023-05-12T05:54:54.016Z,2.15
2023-05-12T05:57:21.591Z,1.80
2023-05-12T05:59:48.790Z,1.60
2023-05-12T06:02:16.642Z,1.25
2023-05-12T06:04:43.911Z,0.95
2023-05-12T06:07:11.287Z,0.95
2023-05-12T06:09:38.500Z,1.73
2023-05-12T06:12:05.781Z,1.38
2023-05-12T06:14:33.045Z,0.95
2023-05-12T06:17:00.276Z,1.20
2023-05-12T06:19:27.725Z,1.20
2023-05-12T06:21:54.933Z,1.17
2023-05-12T06:24:22.156Z,1.98
2023-05-12T06:26:49.402Z,1.90
2023-05-12T06:29:16.641Z,1.25
2023-05-12T06:31:43.927Z,2.20
2023-05-12T06:34:12.127Z,2.65
2023-05-12T06:36:39.794Z,2.42
2023-05-12T06:39:07.033Z,2.05
2023-05-12T06:41:34.359Z,1.73
2023-05-12T06:44:02.397Z,2.22
2023-05-12T06:46:29.846Z,2.40
2023-05-12T06:48:57.315Z,2.67
2023-05-12T06:51:24.582Z,1.20
2023-05-12T06:53:51.842Z,1.42
2023-05-12T06:56:19.032Z,1.55
2023-05-12T06:58:47.771Z,1.30
2023-05-12T07:01:15.070Z,1.58
2023-05-12T07:03:42.340Z,0.80
2023-05-12T07:06:09.927Z,1.15
2023-05-12T07:08:37.197Z,0.82
2023-05-12T07:11:04.456Z,1.20
2023-05-12T07:13:31.758Z,1.48
2023-05-12T07:16:00.249Z,1.40
2023-05-12T07:18:27.524Z,1.60
2023-05-12T07:20:55.668Z,1.92
2023-05-12T07:23:23.363Z,2.33
2023-05-12T07:25:50.550Z,1.58
2023-05-12T07:28:18.576Z,1.38
2023-05-12T07:30:46.214Z,1.70
2023-05-12T07:33:13.537Z,2.00
2023-05-12T07:35:40.780Z,2.10
2023-05-12T07:38:09.530Z,2.55
2023-05-12T07:40:36.740Z,2.42
2023-05-12T07:43:03.944Z,1.90
2023-05-12T07:45:31.178Z,2.67
2023-05-12T07:47:58.398Z,2.55
2023-05-12T07:50:34.930Z,3.58
2023-05-12T07:53:02.784Z,2.53
2023-05-12T07:55:30.000Z,3.05
2023-05-12T07:57:57.206Z,3.25
2023-05-12T08:00:24.514Z,2.95
2023-05-12T08:02:52.185Z,3.55
2023-05-12T08:05:19.874Z,2.28
2023-05-12T08:07:47.336Z,2.25
2023-05-12T08:10:14.825Z,2.28
2023-05-12T08:12:42.400Z,3.00
2023-05-12T08:15:10.348Z,2.35
2023-05-12T08:17:37.805Z,4.13
2023-05-12T08:20:05.572Z,2.88
2023-05-12T08:22:32.899Z,2.35
2023-05-12T08:25:00.209Z,2.33
2023-05-12T08:27:27.590Z,3.20
2023-05-12T08:29:54.827Z,2.78
2023-05-12T08:32:22.096Z,2.72
2023-05-12T08:34:49.320Z,2.10
2023-05-12T08:37:16.644Z,2.35
2023-05-12T08:39:43.999Z,2.20
2023-05-12T08:42:14.966Z,2.50
2023-05-12T08:44:42.261Z,3.03
2023-05-12T08:47:09.544Z,2.25
2023-05-12T08:49:38.803Z,2.33
2023-05-12T08:52:06.776Z,2.60
2023-05-12T08:54:48.542Z,3.42
2023-05-12T08:57:20.292Z,2.33
2023-05-12T08:59:47.762Z,4.40
2023-05-12T09:02:15.233Z,2.53
2023-05-12T09:04:43.000Z,2.85
2023-05-12T09:07:11.388Z,3.13
2023-05-12T09:09:39.300Z,3.13
2023-05-12T09:12:07.957Z,2.97
2023-05-12T09:14:36.572Z,4.07
2023-05-12T09:17:04.694Z,3.35
2023-05-12T09:19:32.652Z,2.30
2023-05-12T09:22:01.124Z,2.50
2023-05-12T09:24:38.068Z,3.70
2023-05-12T09:27:05.788Z,3.58
2023-05-12T09:29:39.535Z,2.95
2023-05-12T09:32:12.565Z,2.13
2023-05-12T09:34:41.596Z,2.47
2023-05-12T09:37:09.346Z,2.10
2023-05-12T09:39:37.098Z,2.15
2023-05-12T09:42:05.040Z,2.92
2023-05-12T09:44:33.397Z,2.45
2023-05-12T09:47:07.681Z,3.13
2023-05-12T09:49:34.952Z,2.28
2023-05-12T09:52:02.262Z,2.50
2023-05-12T09:54:31.545Z,2.88
2023-05-12T09:57:00.174Z,2.17
2023-05-12T09:59:31.228Z,2.40
2023-05-12T10:02:00.874Z,2.72
2023-05-12T10:04:33.362Z,2.67
2023-05-12T10:07:01.145Z,3.78
2023-05-12T10:09:34.219Z,2.35
2023-05-12T10:12:04.380Z,3.42
2023-05-12T10:14:32.264Z,2.80
2023-05-12T10:17:01.013Z,2.60
2023-05-12T10:19:29.405Z,2.50
2023-05-12T10:21:58.218Z,2.00
2023-05-12T10:24:29.619Z,4.57
2023-05-12T10:26:57.547Z,2.83
2023-05-12T10:29:30.294Z,2.95
2023-05-12T10:31:58.480Z,2.75
2023-05-12T10:34:31.010Z,2.60
2023-05-12T10:36:59.170Z,3.33
2023-05-12T10:39:29.996Z,2.75
2023-05-12T10:42:10.054Z,3.20
2023-05-12T10:44:37.745Z,2.92
2023-05-12T10:47:16.688Z,3.13
2023-05-12T10:49:43.996Z,3.53
2023-05-12T10:52:14.366Z,2.70
2023-05-12T10:54:45.651Z,2.80
2023-05-12T10:57:18.928Z,2.05
2023-05-12T10:59:51.359Z,2.83
2023-05-12T11:02:20.862Z,2.00
2023-05-12T11:04:59.533Z,2.15
2023-05-12T11:07:28.329Z,2.20
2023-05-12T11:09:59.397Z,2.53
2023-05-12T11:12:30.282Z,2.60
2023-05-12T11:14:59.918Z,1.85
2023-05-12T11:17:27.453Z,2.38
2023-05-12T11:19:55.540Z,1.95
2023-05-12T11:22:23.689Z,1.55
2023-05-12T11:24:52.743Z,2.10
2023-05-12T11:27:21.366Z,1.98
2023-05-12T11:29:58.586Z,1.92
2023-05-12T11:32:26.010Z,2.17
2023-05-12T11:34:53.379Z,1.60
2023-05-12T11:37:21.373Z,1.58
2023-05-12T11:39:49.403Z,1.70
2023-05-12T11:42:19.730Z,1.58
2023-05-12T11:44:49.541Z,1.50
2023-05-12T11:47:17.479Z,1.77
2023-05-12T11:49:50.652Z,1.13
2023-05-12T11:52:19.588Z,1.00
2023-05-12T11:54:53.177Z,1.20
2023-05-12T11:57:33.520Z,1.13
2023-05-12T12:00:07.984Z,1.27
2023-05-12T12:02:36.879Z,1.17
2023-05-12T12:05:04.990Z,0.80
2023-05-12T12:07:34.207Z,0.60
2023-05-12T12:10:14.723Z,0.93
2023-05-12T12:12:42.657Z,1.10
2023-05-12T12:15:10.653Z,1.08
2023-05-12T12:17:38.272Z,1.05
2023-05-12T12:20:05.756Z,1.48
2023-05-12T12:22:34.374Z,1.20
2023-05-12T12:25:02.468Z,1.30
2023-05-12T12:27:29.789Z,1.88
2023-05-12T12:29:57.037Z,1.92
2023-05-12T12:32:24.341Z,1.42
2023-05-12T12:34:51.979Z,1.98
2023-05-12T12:37:19.167Z,2.63
2023-05-12T12:39:47.977Z,1.40
2023-05-12T12:42:15.770Z,1.35
2023-05-12T12:44:43.865Z,2.33
2023-05-12T12:47:11.236Z,2.75
2023-05-12T12:49:38.569Z,1.85
2023-05-12T12:52:06.247Z,4.20
2023-05-12T12:54:33.732Z,2.00
2023-05-12T12:57:01.005Z,1.88
2023-05-12T12:59:28.285Z,2.53
2023-05-12T13:01:55.530Z,3.33
2023-05-12T13:04:23.383Z,2.13
2023-05-12T13:06:50.591Z,2.20
2023-05-12T13:09:19.882Z,2.72
2023-05-12T13:11:47.598Z,2.03
2023-05-12T13:14:14.830Z,1.83
2023-05-12T13:16:42.112Z,1.48
2023-05-12T13:19:09.657Z,1.58
2023-05-12T13:21:37.805Z,1.23
2023-05-12T13:24:05.178Z,1.55
2023-05-12T13:26:32.482Z,1.70
2023-05-12T13:28:59.686Z,1.80
2023-05-12T13:31:27.064Z,1.70
2023-05-12T13:33:54.454Z,1.50
2023-05-12T13:36:21.682Z,1.60
2023-05-12T13:38:48.977Z,1.65
2023-05-12T13:41:16.210Z,1.27
2023-05-12T13:43:43.767Z,2.08
2023-05-12T13:46:11.017Z,1.65
2023-05-12T13:48:38.287Z,2.00
2023-05-12T13:51:05.659Z,2.65
2023-05-12T13:53:32.944Z,1.70
2023-05-12T13:56:00.194Z,2.67
2023-05-12T13:58:27.435Z,2.28
2023-05-12T14:00:54.641Z,1.88
2023-05-12T14:03:21.887Z,2.10
2023-05-12T14:05:49.105Z,2.00
2023-05-12T14:08:16.653Z,1.40
2023-05-12T14:10:46.609Z,1.55
2023-05-12T14:13:13.851Z,3.10
2023-05-12T14:15:48.493Z,1.33
2023-05-12T14:18:16.906Z,1.52
2023-05-12T14:20:44.164Z,1.58
2023-05-12T14:23:11.696Z,1.52
2023-05-12T14:25:39.097Z,1.60
2023-05-12T14:28:06.427Z,1.20
2023-05-12T14:30:35.260Z,1.42
2023-05-12T14:33:02.896Z,1.33
2023-05-12T14:35:30.192Z,1.15
2023-05-12T14:37:57.771Z,2.10
2023-05-12T14:40:25.152Z,1.38
2023-05-12T14:42:52.637Z,1.67
2023-05-12T14:45:20.277Z,2.10
2023-05-12T14:47:47.747Z,2.80
2023-05-12T14:50:15.176Z,1.63
2023-05-12T14:52:42.408Z,2.08
2023-05-12T14:55:13.728Z,2.10
2023-05-12T14:57:41.766Z,2.13
2023-05-12T15:00:10.894Z,1.65
2023-05-12T15:02:38.570Z,1.33
2023-05-12T15:05:07.167Z,1.20
2023-05-12T15:07:34.420Z,1.23
2023-05-12T15:10:01.749Z,1.30
2023-05-12T15:12:29.031Z,1.00
2023-05-12T15:14:56.393Z,0.80
2023-05-12T15:17:23.862Z,1.23
2023-05-12T15:19:51.125Z,1.48
2023-05-12T15:22:18.337Z,1.98
2023-05-12T15:24:45.587Z,0.77
2023-05-12T15:27:12.895Z,0.70
2023-05-12T15:29:41.024Z,0.50
2023-05-12T15:32:08.545Z,0.65
2023-05-12T15:34:36.133Z,0.98
2023-05-12T15:37:03.720Z,0.60
2023-05-12T15:39:30.998Z,1.13
2023-05-12T15:41:59.010Z,2.05
2023-05-12T15:44:26.284Z,1.08
2023-05-12T15:46:53.811Z,1.00
2023-05-12T15:49:21.132Z,0.60
2023-05-12T15:51:48.412Z,0.88
2023-05-12T15:54:15.692Z,2.97
2023-05-12T15:56:43.390Z,1.70
2023-05-12T15:59:12.113Z,1.50
2023-05-12T16:01:39.432Z,0.80
2023-05-12T16:04:07.058Z,0.80
2023-05-12T16:06:34.422Z,0.93
2023-05-12T16:09:02.583Z,0.80
2023-05-12T16:11:29.840Z,0.70
2023-05-12T16:13:57.306Z,0.55
2023-05-12T16:16:24.748Z,0.60
2023-05-12T16:18:52.059Z,0.80
2023-05-12T16:21:20.156Z,1.20
2023-05-12T16:23:47.639Z,0.70
2023-05-12T16:26:15.005Z,0.70
2023-05-12T16:28:42.234Z,0.75
2023-05-12T16:31:09.466Z,1.00
2023-05-12T16:33:36.672Z,1.10
2023-05-12T16:36:03.946Z,1.27
2023-05-12T16:38:32.476Z,1.45
2023-05-12T16:41:00.725Z,1.70
2023-05-12T16:43:28.023Z,1.40
2023-05-12T16:46:04.631Z,1.40
2023-05-12T16:48:34.959Z,2.70
2023-05-12T16:51:02.947Z,2.03
2023-05-12T16:53:30.317Z,1.55
2023-05-12T16:55:58.086Z,1.40
2023-05-12T16:58:25.778Z,1.27
2023-05-12T17:00:53.043Z,1.25
2023-05-12T17:03:20.361Z,1.48
2023-05-12T17:05:47.688Z,1.02
2023-05-12T17:08:15.432Z,1.33
2023-05-12T17:10:43.366Z,1.17
2023-05-12T17:13:10.693Z,1.25
2023-05-12T17:15:38.869Z,1.20
2023-05-12T17:18:06.355Z,1.20
2023-05-12T17:20:33.714Z,1.13
2023-05-12T17:23:01.791Z,1.23
2023-05-12T17:25:30.711Z,1.10
2023-05-12T17:27:58.461Z,1.20
2023-05-12T17:30:25.776Z,1.23
2023-05-12T17:32:53.565Z,1.10
2023-05-12T17:35:21.337Z,1.17
2023-05-12T17:37:51.932Z,1.02
2023-05-12T17:40:19.245Z,0.90
2023-05-12T17:42:46.494Z,1.52
2023-05-12T17:45:14.307Z,1.10
2023-05-12T17:47:41.619Z,1.17
2023-05-12T17:50:14.873Z,1.55
2023-05-12T17:52:43.092Z,1.42
2023-05-12T17:55:10.770Z,1.05
2023-05-12T17:57:38.140Z,0.82
2023-05-12T18:00:10.498Z,0.80
2023-05-12T18:02:38.593Z,0.73
2023-05-12T18:05:06.392Z,0.65
2023-05-12T18:07:33.935Z,0.70
2023-05-12T18:10:01.244Z,1.88
2023-05-12T18:12:28.533Z,0.98
2023-05-12T18:14:56.766Z,1.05
2023-05-12T18:17:24.192Z,1.00
2023-05-12T18:19:51.576Z,0.73
2023-05-12T18:22:19.003Z,0.75
2023-05-12T18:24:46.280Z,1.52
2023-05-12T18:27:13.602Z,1.17
2023-05-12T18:29:40.981Z,1.27
2023-05-12T18:32:08.209Z,1.00
2023-05-12T18:34:35.799Z,0.80
2023-05-12T18:37:03.036Z,0.80
2023-05-12T18:39:30.275Z,0.90
2023-05-12T18:41:57.736Z,0.73
2023-05-12T18:44:24.946Z,1.00
2023-05-12T18:46:52.270Z,0.95
2023-05-12T18:49:19.478Z,1.30
2023-05-12T18:51:46.715Z,0.80
2023-05-12T18:54:13.939Z,0.60
2023-05-12T18:56:41.247Z,0.70
2023-05-12T18:59:08.544Z,0.50
2023-05-12T19:01:35.987Z,0.40
2023-05-12T19:04:03.682Z,0.60
2023-05-12T19:06:30.960Z,0.40
2023-05-12T19:08:58.186Z,0.60
2023-05-12T19:11:25.451Z,0.73
2023-05-12T19:13:52.644Z,0.47
2023-05-12T19:16:20.133Z,0.30
2023-05-12T19:18:48.369Z,0.50
2023-05-12T19:21:15.820Z,0.40
2023-05-12T19:23:43.297Z,0.40
2023-05-12T19:26:11.160Z,0.30
2023-05-12T19:28:38.371Z,0.60
2023-05-12T19:31:05.666Z,0.75
2023-05-12T19:33:34.849Z,1.08
2023-05-12T19:36:02.288Z,1.55
2023-05-12T19:38:29.552Z,1.17
2023-05-12T19:40:56.811Z,0.93
2023-05-12T19:43:24.053Z,1.02
2023-05-12T19:45:51.335Z,0.90
2023-05-12T19:48:18.624Z,1.08
2023-05-12T19:50:46.864Z,2.08
2023-05-12T19:53:14.118Z,2.08
2023-05-12T19:55:41.350Z,2.75
2023-05-12T19:58:08.911Z,2.85
2023-05-12T20:00:39.302Z,4.00
2023-05-12T20:03:07.101Z,2.83
2023-05-12T20:05:37.804Z,3.10
2023-05-12T20:08:05.374Z,2.10
2023-05-12T20:10:32.605Z,1.35
2023-05-12T20:13:01.740Z,1.13
2023-05-12T20:15:29.756Z,1.27
2023-05-12T20:17:57.052Z,1.23
2023-05-12T20:20:24.657Z,1.40
2023-05-12T20:22:52.292Z,0.82
2023-05-12T20:25:19.819Z,1.00
2023-05-12T20:27:48.117Z,0.60
2023-05-12T20:30:15.473Z,0.70
2023-05-12T20:32:43.728Z,1.05
2023-05-12T20:35:11.125Z,1.27
2023-05-12T20:37:40.613Z,0.90
2023-05-12T20:40:08.361Z,0.80
2023-05-12T20:42:35.671Z,1.33
2023-05-12T20:45:03.168Z,1.10
2023-05-12T20:47:30.808Z,1.17
2023-05-12T20:49:58.706Z,1.02
2023-05-12T20:52:28.948Z,0.82
2023-05-12T20:54:57.383Z,1.30
2023-05-12T20:57:24.747Z,0.50
2023-05-12T20:59:58.073Z,0.60
2023-05-12T21:02:26.063Z,0.70
2023-05-12T21:04:54.056Z,0.80
2023-05-12T21:07:21.697Z,0.57
2023-05-12T21:09:48.986Z,0.70
2023-05-12T21:12:16.226Z,0.57
2023-05-12T21:14:44.254Z,0.52
2023-05-12T21:17:12.356Z,0.63
2023-05-12T21:19:40.645Z,0.60
2023-05-12T21:22:10.427Z,0.40
2023-05-12T21:24:39.414Z,0.50
2023-05-12T21:27:08.204Z,1.00
2023-05-12T21:29:35.669Z,0.82
2023-05-12T21:32:03.021Z,0.63
2023-05-12T21:34:31.457Z,0.70
2023-05-12T21:37:00.047Z,0.60
2023-05-12T21:39:27.822Z,1.08
2023-05-12T21:41:55.042Z,1.08
2023-05-12T21:44:22.249Z,2.03
2023-05-12T21:46:49.557Z,0.95
2023-05-12T21:49:16.843Z,0.80
2023-05-12T21:51:44.053Z,1.02
2023-05-12T21:54:12.335Z,0.60
2023-05-12T21:56:39.549Z,0.68
2023-05-12T21:59:06.787Z,0.40
2023-05-12T22:01:34.085Z,0.57
2023-05-12T22:04:01.849Z,0.52
2023-05-12T22:06:29.143Z,0.73
2023-05-12T22:08:56.363Z,0.50
2023-05-12T22:11:24.256Z,0.50
2023-05-12T22:13:51.748Z,0.40
2023-05-12T22:16:23.596Z,0.47
2023-05-12T22:18:53.379Z,0.63
2023-05-12T22:21:21.408Z,0.50
2023-05-12T22:23:48.670Z,0.77
2023-05-12T22:26:15.915Z,0.40
2023-05-12T22:28:43.614Z,0.60
2023-05-12T22:31:10.876Z,0.50
2023-05-12T22:33:38.166Z,0.77
2023-05-12T22:36:05.566Z,0.40
2023-05-12T22:38:32.915Z,0.68
2023-05-12T22:41:00.163Z,0.50
2023-05-12T22:43:27.416Z,0.70
2023-05-12T22:45:56.601Z,0.77
2023-05-12T22:48:23.931Z,0.75
2023-05-12T22:50:54.291Z,0.63
2023-05-12T22:53:21.518Z,0.80
2023-05-12T22:55:48.923Z,0.80
2023-05-12T22:58:16.172Z,0.80
2023-05-12T23:00:43.382Z,0.60
2023-05-12T23:03:10.720Z,1.10
2023-05-12T23:05:38.031Z,1.20
2023-05-12T23:08:05.610Z,0.50
2023-05-12T23:10:32.818Z,0.50
2023-05-12T23:13:00.056Z,0.90
2023-05-12T23:15:27.252Z,0.75
2023-05-12T23:17:54.447Z,0.85
2023-05-12T23:20:21.896Z,1.25
2023-05-12T23:22:49.313Z,0.95
2023-05-12T23:25:16.605Z,0.60
2023-05-12T23:27:43.770Z,0.60
2023-05-12T23:30:11.276Z,0.80
2023-05-12T23:32:38.683Z,0.70
2023-05-12T23:35:06.265Z,1.05
2023-05-12T23:37:33.529Z,1.00
2023-05-12T23:40:00.767Z,0.63
2023-05-12T23:42:27.714Z,0.60
2023-05-12T23:44:54.773Z,0.93
2023-05-12T23:47:21.505Z,0.57
2023-05-12T23:49:48.294Z,0.65
2023-05-12T23:52:15.074Z,0.95
2023-05-12T23:54:41.808Z,0.70
2023-05-12T23:57:08.583Z,0.52
2023-05-12T23:59:35.304Z,0.75
